CYTQ

Tasiujaq Airport

Tasiujaq, Quebec, Canada
METAR CYTQ 201500Z 27029KT 1SM BLSN SCT010 M32/M37 A3038 RMK SC4 SLP297
Observed Flight Rules
Feb-20 @ 15:00 UTC (5 hours ago) Instrument Flight Rules
Wind Visibility Clouds Conditions
270° at 29 knots 1 miles
  • Scattered at 1,000' AGL
  • Blowing
  • Snow
Temperatures Readings
Current -32°C / -26°F
Dewpoint -37°C / -35°F
Humidity 61%
Altimeter 30.38" Hg
Pressure 1029.7 hPa
Elevation 31
METAR CYTQ 201500Z 27029KT 1SM BLSN SCT010 M32/M37 A3038 RMK SC4 SLP297
Observed Flight Rules
Feb-20 @ 15:00 UTC
(5 hours ago)
IFR
Wind Visibility
270° at 29 knots 1 miles
Clouds
  • Scattered at 1,000' AGL
Conditions
  • Blowing
  • Snow
Temperature Dewpoint
-32°C / -26°F -37°C / -35°F
Humidity Altimeter Pressure
61% 30.38" Hg 1029.7 hPa